sensor_id;sensor_type;location;lat;lon;timestamp;P1;durP1;ratioP1;P2;durP2;ratioP2
42006;SDS011;27696;42.704;23.304;2023-04-03T00:01:08;12.52;;;6.72;;
42006;SDS011;27696;42.704;23.304;2023-04-03T00:03:34;10.35;;;7.05;;
42006;SDS011;27696;42.704;23.304;2023-04-03T00:06:00;10.25;;;7.28;;
42006;SDS011;27696;42.704;23.304;2023-04-03T00:08:26;12.05;;;5.72;;
42006;SDS011;27696;42.704;23.304;2023-04-03T00:10:52;13.45;;;7.43;;
42006;SDS011;27696;42.704;23.304;2023-04-03T00:13:17;7.95;;;6.05;;
42006;SDS011;27696;42.704;23.304;2023-04-03T00:15:43;13.40;;;9.65;;
42006;SDS011;27696;42.704;23.304;2023-04-03T00:18:08;8.80;;;7.00;;
42006;SDS011;27696;42.704;23.304;2023-04-03T00:20:34;9.18;;;5.10;;
42006;SDS011;27696;42.704;23.304;2023-04-03T00:23:00;10.85;;;5.57;;
42006;SDS011;27696;42.704;23.304;2023-04-03T00:25:25;11.05;;;6.90;;
42006;SDS011;27696;42.704;23.304;2023-04-03T00:27:51;8.77;;;5.43;;
42006;SDS011;27696;42.704;23.304;2023-04-03T00:30:17;10.73;;;8.65;;
42006;SDS011;27696;42.704;23.304;2023-04-03T00:32:44;13.65;;;9.75;;
42006;SDS011;27696;42.704;23.304;2023-04-03T00:35:10;16.92;;;10.20;;
42006;SDS011;27696;42.704;23.304;2023-04-03T00:37:35;14.88;;;9.68;;
42006;SDS011;27696;42.704;23.304;2023-04-03T00:40:01;14.75;;;9.27;;
42006;SDS011;27696;42.704;23.304;2023-04-03T00:42:27;17.85;;;9.05;;
42006;SDS011;27696;42.704;23.304;2023-04-03T00:47:18;17.70;;;9.45;;
42006;SDS011;27696;42.704;23.304;2023-04-03T00:49:43;14.30;;;8.13;;
42006;SDS011;27696;42.704;23.304;2023-04-03T00:52:10;13.35;;;7.68;;
42006;SDS011;27696;42.704;23.304;2023-04-03T00:54:38;16.00;;;8.95;;
42006;SDS011;27696;42.704;23.304;2023-04-03T00:57:03;15.38;;;9.88;;
42006;SDS011;27696;42.704;23.304;2023-04-03T00:59:33;15.38;;;9.35;;
42006;SDS011;27696;42.704;23.304;2023-04-03T01:02:00;19.25;;;11.52;;
42006;SDS011;27696;42.704;23.304;2023-04-03T01:04:26;36.13;;;13.93;;
42006;SDS011;27696;42.704;23.304;2023-04-03T01:06:52;22.13;;;13.88;;
42006;SDS011;27696;42.704;23.304;2023-04-03T01:09:23;38.38;;;18.52;;
42006;SDS011;27696;42.704;23.304;2023-04-03T01:11:49;28.58;;;14.10;;
42006;SDS011;27696;42.704;23.304;2023-04-03T01:14:14;33.95;;;17.90;;
42006;SDS011;27696;42.704;23.304;2023-04-03T01:16:40;24.98;;;12.95;;
42006;SDS011;27696;42.704;23.304;2023-04-03T01:19:06;21.45;;;10.55;;
42006;SDS011;27696;42.704;23.304;2023-04-03T01:24:32;32.65;;;8.68;;
42006;SDS011;27696;42.704;23.304;2023-04-03T01:27:04;21.77;;;6.53;;
42006;SDS011;27696;42.704;23.304;2023-04-03T01:29:30;9.52;;;4.93;;
42006;SDS011;27696;42.704;23.304;2023-04-03T01:31:57;7.47;;;4.40;;
42006;SDS011;27696;42.704;23.304;2023-04-03T01:34:24;5.97;;;4.45;;
42006;SDS011;27696;42.704;23.304;2023-04-03T01:36:50;7.18;;;3.70;;
42006;SDS011;27696;42.704;23.304;2023-04-03T01:39:17;7.05;;;4.15;;
42006;SDS011;27696;42.704;23.304;2023-04-03T01:41:42;9.57;;;4.20;;
42006;SDS011;27696;42.704;23.304;2023-04-03T01:44:08;8.35;;;3.88;;
42006;SDS011;27696;42.704;23.304;2023-04-03T01:46:33;5.63;;;3.70;;
42006;SDS011;27696;42.704;23.304;2023-04-03T01:48:59;7.15;;;3.90;;
42006;SDS011;27696;42.704;23.304;2023-04-03T01:51:24;4.18;;;3.28;;
42006;SDS011;27696;42.704;23.304;2023-04-03T01:53:50;6.30;;;4.38;;
42006;SDS011;27696;42.704;23.304;2023-04-03T01:56:16;4.95;;;3.33;;
42006;SDS011;27696;42.704;23.304;2023-04-03T01:58:42;6.95;;;4.10;;
42006;SDS011;27696;42.704;23.304;2023-04-03T02:01:07;5.65;;;3.53;;
42006;SDS011;27696;42.704;23.304;2023-04-03T02:03:32;4.93;;;3.28;;
42006;SDS011;27696;42.704;23.304;2023-04-03T02:05:58;5.78;;;3.10;;
42006;SDS011;27696;42.704;23.304;2023-04-03T02:08:24;3.95;;;3.38;;
42006;SDS011;27696;42.704;23.304;2023-04-03T02:10:50;4.78;;;3.60;;
42006;SDS011;27696;42.704;23.304;2023-04-03T02:13:16;9.80;;;5.70;;
42006;SDS011;27696;42.704;23.304;2023-04-03T02:15:42;6.85;;;3.70;;
42006;SDS011;27696;42.704;23.304;2023-04-03T02:18:08;18.38;;;4.28;;
42006;SDS011;27696;42.704;23.304;2023-04-03T02:20:33;11.82;;;4.90;;
42006;SDS011;27696;42.704;23.304;2023-04-03T02:22:59;7.95;;;6.05;;
42006;SDS011;27696;42.704;23.304;2023-04-03T02:25:25;7.75;;;5.13;;
42006;SDS011;27696;42.704;23.304;2023-04-03T02:27:51;6.88;;;4.30;;
42006;SDS011;27696;42.704;23.304;2023-04-03T02:30:16;10.32;;;4.18;;
42006;SDS011;27696;42.704;23.304;2023-04-03T02:32:42;5.97;;;4.22;;
42006;SDS011;27696;42.704;23.304;2023-04-03T02:35:08;41.00;;;5.22;;
42006;SDS011;27696;42.704;23.304;2023-04-03T02:37:34;13.57;;;4.65;;
42006;SDS011;27696;42.704;23.304;2023-04-03T02:40:00;7.15;;;4.35;;
42006;SDS011;27696;42.704;23.304;2023-04-03T02:42:25;11.00;;;5.28;;
42006;SDS011;27696;42.704;23.304;2023-04-03T02:44:51;8.82;;;3.75;;
42006;SDS011;27696;42.704;23.304;2023-04-03T02:47:16;5.75;;;3.97;;
42006;SDS011;27696;42.704;23.304;2023-04-03T02:49:42;10.68;;;4.07;;
42006;SDS011;27696;42.704;23.304;2023-04-03T02:52:10;19.38;;;4.20;;
42006;SDS011;27696;42.704;23.304;2023-04-03T02:54:35;43.42;;;5.05;;
42006;SDS011;27696;42.704;23.304;2023-04-03T02:57:01;112.00;;;8.07;;
42006;SDS011;27696;42.704;23.304;2023-04-03T02:59:26;14.80;;;4.50;;
42006;SDS011;27696;42.704;23.304;2023-04-03T03:01:52;7.88;;;4.40;;
42006;SDS011;27696;42.704;23.304;2023-04-03T03:04:17;11.85;;;6.60;;
42006;SDS011;27696;42.704;23.304;2023-04-03T03:06:42;10.52;;;6.22;;
42006;SDS011;27696;42.704;23.304;2023-04-03T03:09:08;13.43;;;6.70;;
42006;SDS011;27696;42.704;23.304;2023-04-03T03:11:33;12.70;;;6.53;;
42006;SDS011;27696;42.704;23.304;2023-04-03T03:13:59;8.95;;;5.90;;
42006;SDS011;27696;42.704;23.304;2023-04-03T03:16:24;15.68;;;7.07;;
42006;SDS011;27696;42.704;23.304;2023-04-03T03:18:50;22.50;;;6.22;;
42006;SDS011;27696;42.704;23.304;2023-04-03T03:21:15;20.60;;;5.50;;
42006;SDS011;27696;42.704;23.304;2023-04-03T03:23:41;15.45;;;5.55;;
42006;SDS011;27696;42.704;23.304;2023-04-03T03:26:07;13.68;;;6.30;;
42006;SDS011;27696;42.704;23.304;2023-04-03T03:28:34;17.58;;;5.63;;
42006;SDS011;27696;42.704;23.304;2023-04-03T03:31:01;17.27;;;6.50;;
42006;SDS011;27696;42.704;23.304;2023-04-03T03:33:27;19.80;;;7.68;;
42006;SDS011;27696;42.704;23.304;2023-04-03T03:35:52;15.65;;;7.35;;
42006;SDS011;27696;42.704;23.304;2023-04-03T03:38:19;19.05;;;7.88;;
42006;SDS011;27696;42.704;23.304;2023-04-03T03:40:44;13.85;;;7.80;;
42006;SDS011;27696;42.704;23.304;2023-04-03T03:43:12;15.48;;;7.35;;
42006;SDS011;27696;42.704;23.304;2023-04-03T03:45:37;17.10;;;7.43;;
42006;SDS011;27696;42.704;23.304;2023-04-03T03:48:02;19.10;;;7.90;;
42006;SDS011;27696;42.704;23.304;2023-04-03T03:50:28;21.10;;;7.80;;
42006;SDS011;27696;42.704;23.304;2023-04-03T03:52:53;12.88;;;7.28;;
42006;SDS011;27696;42.704;23.304;2023-04-03T03:55:19;12.95;;;7.50;;
42006;SDS011;27696;42.704;23.304;2023-04-03T03:57:44;19.65;;;8.50;;
42006;SDS011;27696;42.704;23.304;2023-04-03T04:00:10;15.43;;;8.00;;
42006;SDS011;27696;42.704;23.304;2023-04-03T04:02:35;15.15;;;9.63;;
42006;SDS011;27696;42.704;23.304;2023-04-03T04:05:01;13.25;;;10.00;;
42006;SDS011;27696;42.704;23.304;2023-04-03T04:07:26;16.35;;;9.10;;
42006;SDS011;27696;42.704;23.304;2023-04-03T04:09:54;19.55;;;13.82;;
42006;SDS011;27696;42.704;23.304;2023-04-03T04:12:22;60.67;;;11.00;;
42006;SDS011;27696;42.704;23.304;2023-04-03T04:14:48;39.95;;;12.60;;
42006;SDS011;27696;42.704;23.304;2023-04-03T04:17:13;25.52;;;9.55;;
42006;SDS011;27696;42.704;23.304;2023-04-03T04:19:39;23.92;;;10.23;;
42006;SDS011;27696;42.704;23.304;2023-04-03T04:22:04;19.15;;;10.68;;
42006;SDS011;27696;42.704;23.304;2023-04-03T04:24:30;26.40;;;10.65;;
42006;SDS011;27696;42.704;23.304;2023-04-03T04:26:55;24.27;;;9.82;;
42006;SDS011;27696;42.704;23.304;2023-04-03T04:29:21;23.13;;;9.95;;
42006;SDS011;27696;42.704;23.304;2023-04-03T04:31:46;24.60;;;10.20;;
42006;SDS011;27696;42.704;23.304;2023-04-03T04:34:11;19.63;;;10.05;;
42006;SDS011;27696;42.704;23.304;2023-04-03T04:36:38;21.05;;;10.43;;
42006;SDS011;27696;42.704;23.304;2023-04-03T04:39:04;22.45;;;11.20;;
42006;SDS011;27696;42.704;23.304;2023-04-03T04:41:30;21.58;;;9.90;;
42006;SDS011;27696;42.704;23.304;2023-04-03T04:43:55;19.58;;;10.98;;
42006;SDS011;27696;42.704;23.304;2023-04-03T04:46:21;24.05;;;10.80;;
42006;SDS011;27696;42.704;23.304;2023-04-03T04:48:46;20.80;;;11.43;;
42006;SDS011;27696;42.704;23.304;2023-04-03T04:51:13;20.80;;;11.40;;
42006;SDS011;27696;42.704;23.304;2023-04-03T04:53:39;21.70;;;11.63;;
42006;SDS011;27696;42.704;23.304;2023-04-03T04:56:05;30.45;;;11.55;;
42006;SDS011;27696;42.704;23.304;2023-04-03T04:58:31;30.58;;;10.95;;
42006;SDS011;27696;42.704;23.304;2023-04-03T05:01:00;28.55;;;13.48;;
42006;SDS011;27696;42.704;23.304;2023-04-03T05:03:26;33.10;;;11.63;;
42006;SDS011;27696;42.704;23.304;2023-04-03T05:05:51;26.63;;;12.20;;
42006;SDS011;27696;42.704;23.304;2023-04-03T05:08:16;30.65;;;11.90;;
42006;SDS011;27696;42.704;23.304;2023-04-03T05:10:42;24.80;;;11.80;;
42006;SDS011;27696;42.704;23.304;2023-04-03T05:13:07;27.27;;;13.75;;
42006;SDS011;27696;42.704;23.304;2023-04-03T05:15:33;28.58;;;15.45;;
42006;SDS011;27696;42.704;23.304;2023-04-03T05:17:58;28.33;;;12.73;;
42006;SDS011;27696;42.704;23.304;2023-04-03T05:20:24;24.48;;;12.80;;
42006;SDS011;27696;42.704;23.304;2023-04-03T05:22:50;23.02;;;12.00;;
42006;SDS011;27696;42.704;23.304;2023-04-03T05:25:15;21.80;;;12.10;;
42006;SDS011;27696;42.704;23.304;2023-04-03T05:27:41;23.70;;;12.55;;
42006;SDS011;27696;42.704;23.304;2023-04-03T05:30:06;27.20;;;12.82;;
42006;SDS011;27696;42.704;23.304;2023-04-03T05:32:32;18.13;;;12.43;;
42006;SDS011;27696;42.704;23.304;2023-04-03T05:34:58;23.48;;;12.82;;
42006;SDS011;27696;42.704;23.304;2023-04-03T05:37:23;26.10;;;14.15;;
42006;SDS011;27696;42.704;23.304;2023-04-03T05:39:49;27.88;;;13.63;;
42006;SDS011;27696;42.704;23.304;2023-04-03T05:42:16;25.80;;;13.23;;
42006;SDS011;27696;42.704;23.304;2023-04-03T05:44:42;25.30;;;14.35;;
42006;SDS011;27696;42.704;23.304;2023-04-03T05:47:07;35.10;;;16.17;;
42006;SDS011;27696;42.704;23.304;2023-04-03T05:49:33;27.95;;;17.48;;
42006;SDS011;27696;42.704;23.304;2023-04-03T05:51:58;33.65;;;17.55;;
42006;SDS011;27696;42.704;23.304;2023-04-03T05:54:26;36.33;;;18.27;;
42006;SDS011;27696;42.704;23.304;2023-04-03T05:56:52;33.67;;;17.02;;
42006;SDS011;27696;42.704;23.304;2023-04-03T05:59:18;24.40;;;12.85;;
42006;SDS011;27696;42.704;23.304;2023-04-03T06:01:44;19.00;;;11.95;;
42006;SDS011;27696;42.704;23.304;2023-04-03T06:04:10;18.35;;;10.43;;
42006;SDS011;27696;42.704;23.304;2023-04-03T06:06:44;21.17;;;9.80;;
42006;SDS011;27696;42.704;23.304;2023-04-03T06:09:10;21.92;;;10.88;;
42006;SDS011;27696;42.704;23.304;2023-04-03T06:11:36;15.88;;;9.32;;
42006;SDS011;27696;42.704;23.304;2023-04-03T06:14:02;21.95;;;11.00;;
42006;SDS011;27696;42.704;23.304;2023-04-03T06:16:28;17.50;;;10.18;;
42006;SDS011;27696;42.704;23.304;2023-04-03T06:18:54;30.55;;;11.48;;
42006;SDS011;27696;42.704;23.304;2023-04-03T06:21:20;14.52;;;10.30;;
42006;SDS011;27696;42.704;23.304;2023-04-03T06:23:45;19.13;;;11.05;;
42006;SDS011;27696;42.704;23.304;2023-04-03T06:26:11;17.90;;;10.18;;
42006;SDS011;27696;42.704;23.304;2023-04-03T06:28:36;21.25;;;11.00;;
42006;SDS011;27696;42.704;23.304;2023-04-03T06:31:02;29.65;;;12.93;;
42006;SDS011;27696;42.704;23.304;2023-04-03T06:33:27;23.60;;;12.55;;
42006;SDS011;27696;42.704;23.304;2023-04-03T06:35:57;19.92;;;13.77;;
42006;SDS011;27696;42.704;23.304;2023-04-03T06:38:23;25.70;;;13.50;;
42006;SDS011;27696;42.704;23.304;2023-04-03T06:40:48;19.67;;;12.98;;
42006;SDS011;27696;42.704;23.304;2023-04-03T06:43:14;20.17;;;12.57;;
42006;SDS011;27696;42.704;23.304;2023-04-03T06:45:39;19.58;;;13.07;;
42006;SDS011;27696;42.704;23.304;2023-04-03T06:48:04;21.50;;;12.90;;
42006;SDS011;27696;42.704;23.304;2023-04-03T06:50:30;27.85;;;13.65;;
42006;SDS011;27696;42.704;23.304;2023-04-03T06:52:56;23.08;;;13.88;;
42006;SDS011;27696;42.704;23.304;2023-04-03T06:55:21;20.77;;;13.13;;
42006;SDS011;27696;42.704;23.304;2023-04-03T06:57:47;25.23;;;14.82;;
42006;SDS011;27696;42.704;23.304;2023-04-03T07:00:13;29.00;;;15.77;;
42006;SDS011;27696;42.704;23.304;2023-04-03T07:02:39;25.98;;;14.20;;
42006;SDS011;27696;42.704;23.304;2023-04-03T07:05:05;25.58;;;14.40;;
42006;SDS011;27696;42.704;23.304;2023-04-03T07:07:31;30.50;;;13.50;;
42006;SDS011;27696;42.704;23.304;2023-04-03T07:09:58;29.85;;;15.63;;
42006;SDS011;27696;42.704;23.304;2023-04-03T07:12:23;24.25;;;16.20;;
42006;SDS011;27696;42.704;23.304;2023-04-03T07:14:48;28.38;;;14.02;;
42006;SDS011;27696;42.704;23.304;2023-04-03T07:17:14;32.97;;;13.13;;
42006;SDS011;27696;42.704;23.304;2023-04-03T07:19:39;31.40;;;13.48;;
42006;SDS011;27696;42.704;23.304;2023-04-03T07:22:05;24.42;;;13.32;;
42006;SDS011;27696;42.704;23.304;2023-04-03T07:24:30;27.90;;;13.82;;
42006;SDS011;27696;42.704;23.304;2023-04-03T07:26:56;31.40;;;13.80;;
42006;SDS011;27696;42.704;23.304;2023-04-03T07:29:22;28.13;;;13.23;;
42006;SDS011;27696;42.704;23.304;2023-04-03T07:31:47;24.38;;;13.07;;
42006;SDS011;27696;42.704;23.304;2023-04-03T07:34:14;21.02;;;13.35;;
42006;SDS011;27696;42.704;23.304;2023-04-03T07:36:39;26.30;;;13.38;;
42006;SDS011;27696;42.704;23.304;2023-04-03T07:39:05;23.63;;;13.20;;
42006;SDS011;27696;42.704;23.304;2023-04-03T07:41:32;22.80;;;12.30;;
42006;SDS011;27696;42.704;23.304;2023-04-03T07:43:57;21.10;;;10.13;;
42006;SDS011;27696;42.704;23.304;2023-04-03T07:46:23;14.30;;;9.27;;
42006;SDS011;27696;42.704;23.304;2023-04-03T07:48:49;15.25;;;9.75;;
42006;SDS011;27696;42.704;23.304;2023-04-03T07:51:14;18.02;;;10.10;;
42006;SDS011;27696;42.704;23.304;2023-04-03T07:53:40;21.10;;;11.00;;
42006;SDS011;27696;42.704;23.304;2023-04-03T07:56:06;19.13;;;11.27;;
42006;SDS011;27696;42.704;23.304;2023-04-03T07:58:32;22.90;;;11.82;;
42006;SDS011;27696;42.704;23.304;2023-04-03T08:00:57;23.85;;;11.63;;
42006;SDS011;27696;42.704;23.304;2023-04-03T08:03:23;26.80;;;10.73;;
42006;SDS011;27696;42.704;23.304;2023-04-03T08:05:49;19.70;;;10.40;;
42006;SDS011;27696;42.704;23.304;2023-04-03T08:08:18;17.70;;;11.00;;
42006;SDS011;27696;42.704;23.304;2023-04-03T08:10:48;22.17;;;11.30;;
42006;SDS011;27696;42.704;23.304;2023-04-03T08:13:16;21.17;;;9.73;;
42006;SDS011;27696;42.704;23.304;2023-04-03T08:15:42;20.08;;;11.15;;
42006;SDS011;27696;42.704;23.304;2023-04-03T08:18:08;14.05;;;10.18;;
42006;SDS011;27696;42.704;23.304;2023-04-03T08:20:34;21.58;;;11.25;;
42006;SDS011;27696;42.704;23.304;2023-04-03T08:23:00;17.13;;;10.30;;
42006;SDS011;27696;42.704;23.304;2023-04-03T08:25:33;14.55;;;10.63;;
42006;SDS011;27696;42.704;23.304;2023-04-03T08:27:59;20.30;;;11.02;;
42006;SDS011;27696;42.704;23.304;2023-04-03T08:30:25;63.63;;;13.13;;
42006;SDS011;27696;42.704;23.304;2023-04-03T08:32:51;19.98;;;12.30;;
42006;SDS011;27696;42.704;23.304;2023-04-03T08:35:16;24.05;;;11.07;;
42006;SDS011;27696;42.704;23.304;2023-04-03T08:37:42;18.15;;;11.68;;
42006;SDS011;27696;42.704;23.304;2023-04-03T08:40:10;19.95;;;11.88;;
42006;SDS011;27696;42.704;23.304;2023-04-03T08:42:45;34.17;;;16.17;;
42006;SDS011;27696;42.704;23.304;2023-04-03T08:45:25;23.10;;;12.80;;
42006;SDS011;27696;42.704;23.304;2023-04-03T08:48:00;20.13;;;11.60;;
42006;SDS011;27696;42.704;23.304;2023-04-03T08:50:31;20.95;;;14.38;;
42006;SDS011;27696;42.704;23.304;2023-04-03T08:52:59;25.15;;;13.13;;
42006;SDS011;27696;42.704;23.304;2023-04-03T08:55:28;23.45;;;13.85;;
42006;SDS011;27696;42.704;23.304;2023-04-03T08:58:02;18.95;;;12.88;;
42006;SDS011;27696;42.704;23.304;2023-04-03T09:00:29;30.33;;;13.10;;
42006;SDS011;27696;42.704;23.304;2023-04-03T09:02:57;29.77;;;12.77;;
42006;SDS011;27696;42.704;23.304;2023-04-03T09:05:29;26.40;;;13.60;;
42006;SDS011;27696;42.704;23.304;2023-04-03T09:08:22;24.75;;;13.07;;
42006;SDS011;27696;42.704;23.304;2023-04-03T09:10:52;24.50;;;13.77;;
42006;SDS011;27696;42.704;23.304;2023-04-03T09:13:36;21.58;;;12.82;;
42006;SDS011;27696;42.704;23.304;2023-04-03T09:22:43;23.33;;;14.38;;
42006;SDS011;27696;42.704;23.304;2023-04-03T09:27:37;31.08;;;15.15;;
42006;SDS011;27696;42.704;23.304;2023-04-03T09:30:03;20.40;;;13.80;;
42006;SDS011;27696;42.704;23.304;2023-04-03T09:32:35;21.77;;;13.45;;
42006;SDS011;27696;42.704;23.304;2023-04-03T09:38:02;29.35;;;13.38;;
42006;SDS011;27696;42.704;23.304;2023-04-03T09:40:44;25.10;;;12.93;;
42006;SDS011;27696;42.704;23.304;2023-04-03T09:45:43;25.58;;;13.75;;
42006;SDS011;27696;42.704;23.304;2023-04-03T09:53:35;33.33;;;15.43;;
42006;SDS011;27696;42.704;23.304;2023-04-03T09:56:02;32.05;;;15.77;;
42006;SDS011;27696;42.704;23.304;2023-04-03T09:58:30;38.92;;;15.70;;
42006;SDS011;27696;42.704;23.304;2023-04-03T10:00:59;27.90;;;14.52;;
42006;SDS011;27696;42.704;23.304;2023-04-03T10:06:00;30.58;;;13.98;;
42006;SDS011;27696;42.704;23.304;2023-04-03T10:08:30;20.40;;;12.40;;
42006;SDS011;27696;42.704;23.304;2023-04-03T10:11:08;19.65;;;11.57;;
42006;SDS011;27696;42.704;23.304;2023-04-03T10:13:35;23.20;;;13.65;;
42006;SDS011;27696;42.704;23.304;2023-04-03T10:16:06;22.65;;;14.35;;
42006;SDS011;27696;42.704;23.304;2023-04-03T10:18:41;22.67;;;13.38;;
42006;SDS011;27696;42.704;23.304;2023-04-03T10:21:24;23.05;;;13.07;;
42006;SDS011;27696;42.704;23.304;2023-04-03T10:24:14;30.45;;;12.55;;
42006;SDS011;27696;42.704;23.304;2023-04-03T10:32:27;17.08;;;11.77;;
42006;SDS011;27696;42.704;23.304;2023-04-03T10:38:18;20.05;;;10.95;;
42006;SDS011;27696;42.704;23.304;2023-04-03T10:41:07;23.85;;;12.48;;
42006;SDS011;27696;42.704;23.304;2023-04-03T10:44:26;26.80;;;11.45;;
42006;SDS011;27696;42.704;23.304;2023-04-03T10:46:53;19.05;;;10.52;;
42006;SDS011;27696;42.704;23.304;2023-04-03T10:52:14;14.18;;;8.00;;
42006;SDS011;27696;42.704;23.304;2023-04-03T10:57:11;14.10;;;7.80;;
42006;SDS011;27696;42.704;23.304;2023-04-03T11:02:39;10.48;;;6.90;;
42006;SDS011;27696;42.704;23.304;2023-04-03T11:05:17;17.77;;;8.13;;
42006;SDS011;27696;42.704;23.304;2023-04-03T11:07:48;17.50;;;6.53;;
42006;SDS011;27696;42.704;23.304;2023-04-03T11:15:48;18.45;;;7.30;;
42006;SDS011;27696;42.704;23.304;2023-04-03T11:18:15;14.95;;;6.93;;
42006;SDS011;27696;42.704;23.304;2023-04-03T11:20:46;11.00;;;7.68;;
42006;SDS011;27696;42.704;23.304;2023-04-03T11:23:23;10.52;;;7.43;;
42006;SDS011;27696;42.704;23.304;2023-04-03T11:25:54;14.63;;;8.35;;
42006;SDS011;27696;42.704;23.304;2023-04-03T11:28:22;13.88;;;7.97;;
42006;SDS011;27696;42.704;23.304;2023-04-03T11:31:09;11.43;;;8.57;;
42006;SDS011;27696;42.704;23.304;2023-04-03T11:36:40;14.43;;;8.90;;
42006;SDS011;27696;42.704;23.304;2023-04-03T11:39:23;9.18;;;6.20;;
42006;SDS011;27696;42.704;23.304;2023-04-03T11:41:51;9.48;;;6.30;;
42006;SDS011;27696;42.704;23.304;2023-04-03T11:44:35;10.50;;;7.32;;
42006;SDS011;27696;42.704;23.304;2023-04-03T11:47:03;8.88;;;5.80;;
42006;SDS011;27696;42.704;23.304;2023-04-03T11:52:45;7.25;;;5.75;;
42006;SDS011;27696;42.704;23.304;2023-04-03T12:13:33;7.22;;;4.88;;
42006;SDS011;27696;42.704;23.304;2023-04-03T12:16:03;8.40;;;4.93;;
42006;SDS011;27696;42.704;23.304;2023-04-03T12:18:43;8.55;;;5.05;;
42006;SDS011;27696;42.704;23.304;2023-04-03T12:21:10;7.25;;;4.32;;
42006;SDS011;27696;42.704;23.304;2023-04-03T12:24:24;6.30;;;5.30;;
42006;SDS011;27696;42.704;23.304;2023-04-03T12:26:50;9.25;;;5.18;;
42006;SDS011;27696;42.704;23.304;2023-04-03T12:45:13;13.63;;;6.03;;
42006;SDS011;27696;42.704;23.304;2023-04-03T12:47:45;6.70;;;5.70;;
42006;SDS011;27696;42.704;23.304;2023-04-03T12:50:17;8.60;;;5.75;;
42006;SDS011;27696;42.704;23.304;2023-04-03T12:52:47;8.60;;;7.53;;
42006;SDS011;27696;42.704;23.304;2023-04-03T12:55:17;10.68;;;7.35;;
42006;SDS011;27696;42.704;23.304;2023-04-03T12:57:45;8.82;;;6.85;;
42006;SDS011;27696;42.704;23.304;2023-04-03T13:00:21;7.28;;;6.10;;
42006;SDS011;27696;42.704;23.304;2023-04-03T13:02:47;10.57;;;7.40;;
42006;SDS011;27696;42.704;23.304;2023-04-03T13:05:14;12.07;;;7.25;;
42006;SDS011;27696;42.704;23.304;2023-04-03T13:07:42;24.95;;;8.15;;
42006;SDS011;27696;42.704;23.304;2023-04-03T13:12:54;11.18;;;7.40;;
42006;SDS011;27696;42.704;23.304;2023-04-03T13:15:26;14.95;;;8.40;;
42006;SDS011;27696;42.704;23.304;2023-04-03T13:17:56;15.73;;;9.05;;
42006;SDS011;27696;42.704;23.304;2023-04-03T13:22:51;10.65;;;7.57;;
42006;SDS011;27696;42.704;23.304;2023-04-03T13:25:21;11.07;;;8.63;;
42006;SDS011;27696;42.704;23.304;2023-04-03T13:27:48;13.88;;;9.48;;
42006;SDS011;27696;42.704;23.304;2023-04-03T13:32:55;14.30;;;10.13;;
42006;SDS011;27696;42.704;23.304;2023-04-03T13:35:27;13.52;;;11.32;;
42006;SDS011;27696;42.704;23.304;2023-04-03T13:37:55;18.38;;;12.50;;
42006;SDS011;27696;42.704;23.304;2023-04-03T13:40:22;17.13;;;11.27;;
42006;SDS011;27696;42.704;23.304;2023-04-03T13:42:57;13.38;;;11.70;;
42006;SDS011;27696;42.704;23.304;2023-04-03T13:45:28;15.07;;;12.18;;
42006;SDS011;27696;42.704;23.304;2023-04-03T13:48:09;15.68;;;12.82;;
42006;SDS011;27696;42.704;23.304;2023-04-03T13:51:19;12.43;;;10.55;;
42006;SDS011;27696;42.704;23.304;2023-04-03T13:56:32;12.60;;;9.75;;
42006;SDS011;27696;42.704;23.304;2023-04-03T14:01:43;11.95;;;8.40;;
42006;SDS011;27696;42.704;23.304;2023-04-03T14:04:21;12.45;;;9.50;;
42006;SDS011;27696;42.704;23.304;2023-04-03T14:06:49;12.40;;;8.95;;
42006;SDS011;27696;42.704;23.304;2023-04-03T14:09:15;12.82;;;8.73;;
42006;SDS011;27696;42.704;23.304;2023-04-03T14:11:43;13.05;;;8.45;;
42006;SDS011;27696;42.704;23.304;2023-04-03T14:14:16;10.40;;;8.73;;
42006;SDS011;27696;42.704;23.304;2023-04-03T14:16:46;10.73;;;9.18;;
42006;SDS011;27696;42.704;23.304;2023-04-03T14:19:23;11.90;;;9.43;;
42006;SDS011;27696;42.704;23.304;2023-04-03T14:21:54;11.60;;;9.45;;
42006;SDS011;27696;42.704;23.304;2023-04-03T14:24:20;14.00;;;11.50;;
42006;SDS011;27696;42.704;23.304;2023-04-03T14:26:46;11.82;;;9.80;;
42006;SDS011;27696;42.704;23.304;2023-04-03T14:29:13;13.60;;;8.07;;
42006;SDS011;27696;42.704;23.304;2023-04-03T14:31:40;9.63;;;8.05;;
42006;SDS011;27696;42.704;23.304;2023-04-03T14:34:07;9.65;;;7.13;;
42006;SDS011;27696;42.704;23.304;2023-04-03T14:36:34;11.80;;;7.53;;
42006;SDS011;27696;42.704;23.304;2023-04-03T14:38:59;7.50;;;6.38;;
42006;SDS011;27696;42.704;23.304;2023-04-03T14:41:26;8.88;;;7.25;;
42006;SDS011;27696;42.704;23.304;2023-04-03T14:43:51;11.15;;;7.95;;
42006;SDS011;27696;42.704;23.304;2023-04-03T14:46:18;8.90;;;7.38;;
42006;SDS011;27696;42.704;23.304;2023-04-03T14:48:48;8.80;;;7.90;;
42006;SDS011;27696;42.704;23.304;2023-04-03T14:51:13;8.80;;;7.43;;
42006;SDS011;27696;42.704;23.304;2023-04-03T14:53:40;11.18;;;8.32;;
42006;SDS011;27696;42.704;23.304;2023-04-03T14:56:11;7.85;;;6.50;;
42006;SDS011;27696;42.704;23.304;2023-04-03T14:58:52;9.00;;;7.40;;
42006;SDS011;27696;42.704;23.304;2023-04-03T15:01:20;8.65;;;6.53;;
42006;SDS011;27696;42.704;23.304;2023-04-03T15:03:46;10.13;;;7.47;;
42006;SDS011;27696;42.704;23.304;2023-04-03T15:06:12;8.15;;;6.22;;
42006;SDS011;27696;42.704;23.304;2023-04-03T15:08:39;7.93;;;7.07;;
42006;SDS011;27696;42.704;23.304;2023-04-03T15:11:06;7.85;;;6.40;;
42006;SDS011;27696;42.704;23.304;2023-04-03T15:13:32;8.52;;;5.35;;
42006;SDS011;27696;42.704;23.304;2023-04-03T15:15:57;6.72;;;5.63;;
42006;SDS011;27696;42.704;23.304;2023-04-03T15:18:24;7.40;;;6.10;;
42006;SDS011;27696;42.704;23.304;2023-04-03T15:20:51;6.55;;;5.65;;
42006;SDS011;27696;42.704;23.304;2023-04-03T15:23:20;8.18;;;5.95;;
42006;SDS011;27696;42.704;23.304;2023-04-03T15:25:51;6.93;;;4.78;;
42006;SDS011;27696;42.704;23.304;2023-04-03T15:28:38;5.70;;;4.85;;
42006;SDS011;27696;42.704;23.304;2023-04-03T15:31:07;4.43;;;4.03;;
42006;SDS011;27696;42.704;23.304;2023-04-03T15:33:33;6.20;;;4.80;;
42006;SDS011;27696;42.704;23.304;2023-04-03T15:35:59;8.07;;;5.50;;
42006;SDS011;27696;42.704;23.304;2023-04-03T15:38:24;6.40;;;5.57;;
42006;SDS011;27696;42.704;23.304;2023-04-03T15:40:50;7.13;;;5.78;;
42006;SDS011;27696;42.704;23.304;2023-04-03T15:43:15;6.95;;;5.45;;
42006;SDS011;27696;42.704;23.304;2023-04-03T15:45:41;17.35;;;11.88;;
42006;SDS011;27696;42.704;23.304;2023-04-03T15:48:07;9.55;;;5.88;;
42006;SDS011;27696;42.704;23.304;2023-04-03T15:50:33;6.47;;;5.40;;
42006;SDS011;27696;42.704;23.304;2023-04-03T15:52:59;6.38;;;4.95;;
42006;SDS011;27696;42.704;23.304;2023-04-03T15:55:27;7.45;;;5.43;;
42006;SDS011;27696;42.704;23.304;2023-04-03T15:57:54;5.57;;;4.95;;
42006;SDS011;27696;42.704;23.304;2023-04-03T16:00:20;6.95;;;6.30;;
42006;SDS011;27696;42.704;23.304;2023-04-03T16:02:47;7.60;;;6.15;;
42006;SDS011;27696;42.704;23.304;2023-04-03T16:05:14;7.70;;;6.40;;
42006;SDS011;27696;42.704;23.304;2023-04-03T16:07:40;8.30;;;6.53;;